sensor_id;sensor_type;location;lat;lon;timestamp;pressure;altitude;pressure_sealevel;temperature;humidity
39699;BME280;25372;50.582;12.250;2023-02-19T00:02:40;99749.09;;;7.79;100.00
39699;BME280;25372;50.582;12.250;2023-02-19T00:13:07;99736.22;;;7.84;100.00
39699;BME280;25372;50.582;12.250;2023-02-19T00:23:27;99728.47;;;7.83;100.00
39699;BME280;25372;50.582;12.250;2023-02-19T00:33:51;99724.16;;;7.90;100.00
39699;BME280;25372;50.582;12.250;2023-02-19T00:44:13;99715.28;;;7.83;100.00
39699;BME280;25372;50.582;12.250;2023-02-19T00:54:35;99711.66;;;7.84;100.00
39699;BME280;25372;50.582;12.250;2023-02-19T01:04:57;99699.31;;;7.76;100.00
39699;BME280;25372;50.582;12.250;2023-02-19T01:15:19;99679.19;;;7.75;100.00
39699;BME280;25372;50.582;12.250;2023-02-19T01:25:40;99663.34;;;7.75;100.00
39699;BME280;25372;50.582;12.250;2023-02-19T01:36:04;99653.69;;;7.51;100.00
39699;BME280;25372;50.582;12.250;2023-02-19T01:46:26;99651.56;;;7.38;100.00
39699;BME280;25372;50.582;12.250;2023-02-19T01:56:48;99643.84;;;7.28;100.00
39699;BME280;25372;50.582;12.250;2023-02-19T02:07:09;99635.09;;;7.28;100.00
39699;BME280;25372;50.582;12.250;2023-02-19T02:17:51;99631.00;;;7.17;100.00
39699;BME280;25372;50.582;12.250;2023-02-19T02:28:21;99621.78;;;7.13;100.00
39699;BME280;25372;50.582;12.250;2023-02-19T02:38:50;99609.91;;;7.09;100.00
39699;BME280;25372;50.582;12.250;2023-02-19T02:49:18;99610.94;;;7.08;100.00
39699;BME280;25372;50.582;12.250;2023-02-19T02:59:44;99593.97;;;7.02;100.00
39699;BME280;25372;50.582;12.250;2023-02-19T03:10:12;99583.25;;;6.95;100.00
39699;BME280;25372;50.582;12.250;2023-02-19T03:20:39;99570.75;;;6.89;100.00
39699;BME280;25372;50.582;12.250;2023-02-19T03:31:02;99551.50;;;6.89;100.00
39699;BME280;25372;50.582;12.250;2023-02-19T03:41:32;99545.56;;;6.78;100.00
39699;BME280;25372;50.582;12.250;2023-02-19T03:52:01;99533.22;;;6.71;100.00
39699;BME280;25372;50.582;12.250;2023-02-19T04:02:28;99506.91;;;6.62;100.00
39699;BME280;25372;50.582;12.250;2023-02-19T04:12:56;99501.31;;;6.66;100.00
39699;BME280;25372;50.582;12.250;2023-02-19T04:23:22;99509.88;;;6.59;100.00
39699;BME280;25372;50.582;12.250;2023-02-19T04:33:44;99503.44;;;6.62;100.00
39699;BME280;25372;50.582;12.250;2023-02-19T04:44:06;99481.41;;;6.55;100.00
39699;BME280;25372;50.582;12.250;2023-02-19T04:54:27;99480.59;;;6.54;100.00
39699;BME280;25372;50.582;12.250;2023-02-19T05:04:49;99493.56;;;6.72;100.00
39699;BME280;25372;50.582;12.250;2023-02-19T05:15:10;99537.00;;;6.68;100.00
39699;BME280;25372;50.582;12.250;2023-02-19T05:25:31;99539.19;;;6.73;100.00
39699;BME280;25372;50.582;12.250;2023-02-19T05:35:54;99522.06;;;6.60;100.00
39699;BME280;25372;50.582;12.250;2023-02-19T05:46:18;99538.38;;;6.64;100.00
39699;BME280;25372;50.582;12.250;2023-02-19T05:56:41;99539.34;;;6.63;100.00
39699;BME280;25372;50.582;12.250;2023-02-19T06:07:03;99558.91;;;6.60;100.00
39699;BME280;25372;50.582;12.250;2023-02-19T06:17:24;99573.88;;;6.52;100.00
39699;BME280;25372;50.582;12.250;2023-02-19T06:27:46;99566.81;;;6.52;100.00
39699;BME280;25372;50.582;12.250;2023-02-19T06:38:06;99577.34;;;6.52;100.00
39699;BME280;25372;50.582;12.250;2023-02-19T06:48:30;99576.19;;;6.55;100.00
39699;BME280;25372;50.582;12.250;2023-02-19T06:58:51;99583.28;;;6.54;100.00
39699;BME280;25372;50.582;12.250;2023-02-19T07:09:13;99606.13;;;6.54;100.00
39699;BME280;25372;50.582;12.250;2023-02-19T07:19:34;99632.63;;;6.52;100.00
39699;BME280;25372;50.582;12.250;2023-02-19T07:29:56;99648.94;;;6.56;100.00
39699;BME280;25372;50.582;12.250;2023-02-19T07:40:17;99690.09;;;6.06;100.00
39699;BME280;25372;50.582;12.250;2023-02-19T07:50:40;99730.78;;;5.05;100.00
39699;BME280;25372;50.582;12.250;2023-02-19T08:01:08;99754.25;;;4.70;100.00
39699;BME280;25372;50.582;12.250;2023-02-19T08:11:31;99766.06;;;4.57;100.00
39699;BME280;25372;50.582;12.250;2023-02-19T08:22:09;99790.41;;;4.21;100.00
39699;BME280;25372;50.582;12.250;2023-02-19T08:32:31;99841.97;;;3.83;100.00
39699;BME280;25372;50.582;12.250;2023-02-19T08:42:52;99857.69;;;3.73;100.00
39699;BME280;25372;50.582;12.250;2023-02-19T08:53:14;99905.56;;;3.65;100.00
39699;BME280;25372;50.582;12.250;2023-02-19T09:03:35;99943.19;;;3.45;100.00
39699;BME280;25372;50.582;12.250;2023-02-19T09:13:57;99968.44;;;3.05;100.00
39699;BME280;25372;50.582;12.250;2023-02-19T09:24:18;100004.63;;;2.90;100.00
39699;BME280;25372;50.582;12.250;2023-02-19T09:34:40;100034.56;;;2.97;100.00
39699;BME280;25372;50.582;12.250;2023-02-19T09:45:03;100077.91;;;2.48;100.00
39699;BME280;25372;50.582;12.250;2023-02-19T09:55:30;100085.09;;;2.56;100.00
39699;BME280;25372;50.582;12.250;2023-02-19T10:05:52;100096.53;;;2.97;100.00
39699;BME280;25372;50.582;12.250;2023-02-19T10:16:18;100098.25;;;3.29;100.00
39699;BME280;25372;50.582;12.250;2023-02-19T10:26:39;100117.81;;;3.87;100.00
39699;BME280;25372;50.582;12.250;2023-02-19T10:37:01;100123.56;;;3.71;100.00
39699;BME280;25372;50.582;12.250;2023-02-19T10:47:24;100132.63;;;3.66;100.00
39699;BME280;25372;50.582;12.250;2023-02-19T10:57:46;100138.78;;;3.87;100.00
39699;BME280;25372;50.582;12.250;2023-02-19T11:08:20;100153.78;;;3.75;100.00
39699;BME280;25372;50.582;12.250;2023-02-19T11:18:42;100158.41;;;3.92;100.00
39699;BME280;25372;50.582;12.250;2023-02-19T11:29:15;100180.00;;;3.75;100.00
39699;BME280;25372;50.582;12.250;2023-02-19T11:39:41;100184.91;;;3.89;100.00
39699;BME280;25372;50.582;12.250;2023-02-19T11:50:07;100201.63;;;3.98;100.00
39699;BME280;25372;50.582;12.250;2023-02-19T12:00:41;100213.53;;;4.02;100.00
39699;BME280;25372;50.582;12.250;2023-02-19T12:11:11;100232.31;;;4.07;100.00
39699;BME280;25372;50.582;12.250;2023-02-19T12:21:50;100227.13;;;3.86;98.51
39699;BME280;25372;50.582;12.250;2023-02-19T12:32:24;100231.16;;;4.00;99.30
39699;BME280;25372;50.582;12.250;2023-02-19T12:42:59;100222.31;;;4.32;98.43
39699;BME280;25372;50.582;12.250;2023-02-19T12:53:30;100218.88;;;4.41;95.88
39699;BME280;25372;50.582;12.250;2023-02-19T13:04:15;100212.47;;;4.94;87.04
39699;BME280;25372;50.582;12.250;2023-02-19T13:14:38;100251.31;;;4.91;82.05
39699;BME280;25372;50.582;12.250;2023-02-19T13:25:02;100247.34;;;5.16;80.94
39699;BME280;25372;50.582;12.250;2023-02-19T13:35:50;100250.75;;;4.77;79.26
39699;BME280;25372;50.582;12.250;2023-02-19T13:46:15;100258.50;;;5.08;79.13
39699;BME280;25372;50.582;12.250;2023-02-19T13:56:38;100246.75;;;5.12;76.84
39699;BME280;25372;50.582;12.250;2023-02-19T14:29:06;100283.56;;;5.32;81.41
39699;BME280;25372;50.582;12.250;2023-02-19T14:39:32;100294.19;;;5.11;81.56
39699;BME280;25372;50.582;12.250;2023-02-19T14:49:56;100297.94;;;5.18;82.32
39699;BME280;25372;50.582;12.250;2023-02-19T15:00:24;100335.63;;;4.87;79.54
39699;BME280;25372;50.582;12.250;2023-02-19T15:10:45;100342.38;;;4.40;83.46
39699;BME280;25372;50.582;12.250;2023-02-19T15:21:21;100347.06;;;4.36;84.89
39699;BME280;25372;50.582;12.250;2023-02-19T15:31:46;100339.53;;;4.22;82.69
39699;BME280;25372;50.582;12.250;2023-02-19T15:42:14;100335.53;;;3.96;83.38
39699;BME280;25372;50.582;12.250;2023-02-19T15:52:43;100360.34;;;3.92;83.40
39699;BME280;25372;50.582;12.250;2023-02-19T16:03:13;100372.72;;;3.69;84.23
39699;BME280;25372;50.582;12.250;2023-02-19T16:13:35;100371.22;;;3.11;92.14
39699;BME280;25372;50.582;12.250;2023-02-19T16:24:00;100352.06;;;3.00;91.74
39699;BME280;25372;50.582;12.250;2023-02-19T16:34:33;100373.53;;;2.71;95.98
39699;BME280;25372;50.582;12.250;2023-02-19T16:45:00;100411.25;;;2.57;98.72
39699;BME280;25372;50.582;12.250;2023-02-19T16:55:22;100445.69;;;2.39;99.96
39699;BME280;25372;50.582;12.250;2023-02-19T17:05:44;100409.84;;;2.06;99.43
39699;BME280;25372;50.582;12.250;2023-02-19T17:16:05;100483.22;;;2.16;99.93
39699;BME280;25372;50.582;12.250;2023-02-19T17:26:29;100494.88;;;2.23;100.00
39699;BME280;25372;50.582;12.250;2023-02-19T17:36:50;100512.63;;;2.06;100.00
39699;BME280;25372;50.582;12.250;2023-02-19T17:47:12;100524.19;;;2.15;98.80
39699;BME280;25372;50.582;12.250;2023-02-19T17:57:33;100546.09;;;1.77;100.00
39699;BME280;25372;50.582;12.250;2023-02-19T18:07:55;100548.72;;;1.40;100.00
39699;BME280;25372;50.582;12.250;2023-02-19T18:18:15;100565.97;;;1.30;100.00
39699;BME280;25372;50.582;12.250;2023-02-19T18:28:38;100568.03;;;1.37;100.00
39699;BME280;25372;50.582;12.250;2023-02-19T18:38:58;100584.94;;;1.58;100.00
39699;BME280;25372;50.582;12.250;2023-02-19T18:49:20;100583.69;;;1.63;100.00
39699;BME280;25372;50.582;12.250;2023-02-19T18:59:43;100589.25;;;1.46;100.00
39699;BME280;25372;50.582;12.250;2023-02-19T19:10:07;100585.56;;;1.35;100.00
39699;BME280;25372;50.582;12.250;2023-02-19T19:20:28;100593.50;;;1.34;100.00
39699;BME280;25372;50.582;12.250;2023-02-19T19:30:50;100597.50;;;1.14;100.00
39699;BME280;25372;50.582;12.250;2023-02-19T19:41:12;100575.88;;;1.12;100.00
39699;BME280;25372;50.582;12.250;2023-02-19T19:51:34;100614.28;;;1.35;100.00
39699;BME280;25372;50.582;12.250;2023-02-19T20:01:55;100601.66;;;1.16;100.00
39699;BME280;25372;50.582;12.250;2023-02-19T20:12:18;100584.34;;;1.02;100.00
39699;BME280;25372;50.582;12.250;2023-02-19T20:22:38;100606.34;;;0.98;100.00
39699;BME280;25372;50.582;12.250;2023-02-19T20:33:00;100600.06;;;0.88;100.00
39699;BME280;25372;50.582;12.250;2023-02-19T20:43:21;100585.13;;;0.90;100.00
39699;BME280;25372;50.582;12.250;2023-02-19T20:53:43;100606.38;;;0.58;100.00
39699;BME280;25372;50.582;12.250;2023-02-19T21:04:04;100622.66;;;0.62;100.00
39699;BME280;25372;50.582;12.250;2023-02-19T21:14:26;100646.84;;;0.91;100.00
39699;BME280;25372;50.582;12.250;2023-02-19T21:24:48;100641.88;;;1.14;100.00
39699;BME280;25372;50.582;12.250;2023-02-19T21:35:11;100662.75;;;1.01;100.00
39699;BME280;25372;50.582;12.250;2023-02-19T21:45:32;100670.91;;;1.22;100.00
39699;BME280;25372;50.582;12.250;2023-02-19T21:55:54;100665.94;;;1.58;100.00
39699;BME280;25372;50.582;12.250;2023-02-19T22:06:17;100656.19;;;1.47;100.00
39699;BME280;25372;50.582;12.250;2023-02-19T22:16:42;100650.31;;;1.04;100.00
39699;BME280;25372;50.582;12.250;2023-02-19T22:27:03;100619.94;;;0.91;100.00
39699;BME280;25372;50.582;12.250;2023-02-19T22:37:25;100621.56;;;0.92;100.00
39699;BME280;25372;50.582;12.250;2023-02-19T22:47:48;100619.44;;;1.24;100.00
39699;BME280;25372;50.582;12.250;2023-02-19T22:58:10;100624.13;;;1.58;100.00
39699;BME280;25372;50.582;12.250;2023-02-19T23:08:31;100612.47;;;1.74;100.00
39699;BME280;25372;50.582;12.250;2023-02-19T23:18:53;100575.03;;;1.87;100.00
39699;BME280;25372;50.582;12.250;2023-02-19T23:29:14;100572.31;;;1.88;100.00
39699;BME280;25372;50.582;12.250;2023-02-19T23:39:37;100577.28;;;2.04;100.00
39699;BME280;25372;50.582;12.250;2023-02-19T23:49:58;100569.81;;;1.87;100.00
